sensor_id;sensor_type;location;lat;lon;timestamp;pressure;altitude;pressure_sealevel;temperature;humidity
32298;BME280;18782;48.984;8.548;2023-12-07T00:01:52;100312.84;;;2.73;100.00
32298;BME280;18782;48.984;8.548;2023-12-07T00:04:20;100317.72;;;2.70;100.00
32298;BME280;18782;48.984;8.548;2023-12-07T00:06:49;100319.50;;;2.71;100.00
32298;BME280;18782;48.984;8.548;2023-12-07T00:09:17;100311.47;;;2.78;100.00
32298;BME280;18782;48.984;8.548;2023-12-07T00:11:44;100313.69;;;2.87;100.00
32298;BME280;18782;48.984;8.548;2023-12-07T00:14:12;100317.78;;;2.85;100.00
32298;BME280;18782;48.984;8.548;2023-12-07T00:16:40;100325.50;;;2.86;100.00
32298;BME280;18782;48.984;8.548;2023-12-07T00:19:07;100317.00;;;2.86;100.00
32298;BME280;18782;48.984;8.548;2023-12-07T00:21:35;100325.50;;;2.86;100.00
32298;BME280;18782;48.984;8.548;2023-12-07T00:24:04;100325.34;;;2.83;100.00
32298;BME280;18782;48.984;8.548;2023-12-07T00:26:32;100323.59;;;2.82;100.00
32298;BME280;18782;48.984;8.548;2023-12-07T00:29:00;100332.09;;;2.83;100.00
32298;BME280;18782;48.984;8.548;2023-12-07T00:31:27;100326.03;;;2.81;100.00
32298;BME280;18782;48.984;8.548;2023-12-07T00:33:55;100326.03;;;2.81;100.00
32298;BME280;18782;48.984;8.548;2023-12-07T00:36:23;100323.03;;;2.73;100.00
32298;BME280;18782;48.984;8.548;2023-12-07T00:38:51;100328.91;;;2.72;100.00
32298;BME280;18782;48.984;8.548;2023-12-07T00:41:20;100324.19;;;2.65;100.00
32298;BME280;18782;48.984;8.548;2023-12-07T00:43:48;100322.28;;;2.61;100.00
32298;BME280;18782;48.984;8.548;2023-12-07T00:46:15;100320.50;;;2.60;100.00
32298;BME280;18782;48.984;8.548;2023-12-07T00:48:43;100321.28;;;2.59;100.00
32298;BME280;18782;48.984;8.548;2023-12-07T00:51:11;100328.75;;;2.56;100.00
32298;BME280;18782;48.984;8.548;2023-12-07T00:53:38;100325.19;;;2.54;100.00
32298;BME280;18782;48.984;8.548;2023-12-07T00:56:07;100335.19;;;2.51;100.00
32298;BME280;18782;48.984;8.548;2023-12-07T00:58:36;100333.25;;;2.47;100.00
32298;BME280;18782;48.984;8.548;2023-12-07T01:01:05;100336.56;;;2.46;100.00
32298;BME280;18782;48.984;8.548;2023-12-07T01:03:33;100327.00;;;2.42;100.00
32298;BME280;18782;48.984;8.548;2023-12-07T01:06:00;100328.66;;;2.41;100.00
32298;BME280;18782;48.984;8.548;2023-12-07T01:08:28;100345.28;;;2.36;100.00
32298;BME280;18782;48.984;8.548;2023-12-07T01:10:56;100340.97;;;2.35;100.00
32298;BME280;18782;48.984;8.548;2023-12-07T01:13:23;100349.47;;;2.35;100.00
32298;BME280;18782;48.984;8.548;2023-12-07T01:15:53;100352.78;;;2.34;100.00
32298;BME280;18782;48.984;8.548;2023-12-07T01:18:20;100352.69;;;2.33;100.00
32298;BME280;18782;48.984;8.548;2023-12-07T01:20:48;100354.34;;;2.32;100.00
32298;BME280;18782;48.984;8.548;2023-12-07T01:23:17;100355.13;;;2.31;100.00
32298;BME280;18782;48.984;8.548;2023-12-07T01:25:44;100358.56;;;2.32;100.00
32298;BME280;18782;48.984;8.548;2023-12-07T01:28:12;100365.28;;;2.31;100.00
32298;BME280;18782;48.984;8.548;2023-12-07T01:30:40;100369.38;;;2.29;100.00
32298;BME280;18782;48.984;8.548;2023-12-07T01:33:08;100366.84;;;2.29;100.00
32298;BME280;18782;48.984;8.548;2023-12-07T01:35:36;100367.03;;;2.32;100.00
32298;BME280;18782;48.984;8.548;2023-12-07T01:38:04;100364.28;;;2.29;100.00
32298;BME280;18782;48.984;8.548;2023-12-07T01:40:32;100370.94;;;2.27;100.00
32298;BME280;18782;48.984;8.548;2023-12-07T01:43:01;100367.25;;;2.22;100.00
32298;BME280;18782;48.984;8.548;2023-12-07T01:45:28;100376.44;;;2.20;100.00
32298;BME280;18782;48.984;8.548;2023-12-07T01:47:56;100380.34;;;2.15;100.00
32298;BME280;18782;48.984;8.548;2023-12-07T01:50:27;100370.06;;;2.14;100.00
32298;BME280;18782;48.984;8.548;2023-12-07T01:52:59;100376.63;;;2.10;100.00
32298;BME280;18782;48.984;8.548;2023-12-07T01:55:32;100380.69;;;2.08;100.00
32298;BME280;18782;48.984;8.548;2023-12-07T01:58:00;100375.31;;;2.03;100.00
32298;BME280;18782;48.984;8.548;2023-12-07T02:00:27;100370.72;;;1.98;100.00
32298;BME280;18782;48.984;8.548;2023-12-07T02:02:55;100371.59;;;1.98;100.00
32298;BME280;18782;48.984;8.548;2023-12-07T02:05:24;100368.97;;;1.97;100.00
32298;BME280;18782;48.984;8.548;2023-12-07T02:07:54;100366.03;;;1.91;100.00
32298;BME280;18782;48.984;8.548;2023-12-07T02:10:22;100365.06;;;1.89;100.00
32298;BME280;18782;48.984;8.548;2023-12-07T02:12:50;100367.97;;;1.81;100.00
32298;BME280;18782;48.984;8.548;2023-12-07T02:15:19;100366.38;;;1.70;100.00
32298;BME280;18782;48.984;8.548;2023-12-07T02:17:53;100364.81;;;1.59;100.00
32298;BME280;18782;48.984;8.548;2023-12-07T02:20:29;100361.06;;;1.54;100.00
32298;BME280;18782;48.984;8.548;2023-12-07T02:23:01;100355.59;;;1.48;100.00
32298;BME280;18782;48.984;8.548;2023-12-07T02:25:36;100359.56;;;1.44;100.00
32298;BME280;18782;48.984;8.548;2023-12-07T02:28:09;100360.84;;;1.38;100.00
32298;BME280;18782;48.984;8.548;2023-12-07T02:30:37;100359.75;;;1.34;100.00
32298;BME280;18782;48.984;8.548;2023-12-07T02:33:05;100353.59;;;1.30;100.00
32298;BME280;18782;48.984;8.548;2023-12-07T02:35:34;100366.06;;;1.27;100.00
32298;BME280;18782;48.984;8.548;2023-12-07T02:38:02;100360.75;;;1.24;100.00
32298;BME280;18782;48.984;8.548;2023-12-07T02:40:30;100359.56;;;1.19;100.00
32298;BME280;18782;48.984;8.548;2023-12-07T02:42:59;100363.66;;;1.17;100.00
32298;BME280;18782;48.984;8.548;2023-12-07T02:45:29;100364.13;;;1.12;100.00
32298;BME280;18782;48.984;8.548;2023-12-07T02:47:57;100366.44;;;1.09;100.00
32298;BME280;18782;48.984;8.548;2023-12-07T02:50:25;100369.66;;;1.06;100.00
32298;BME280;18782;48.984;8.548;2023-12-07T02:52:52;100371.00;;;1.01;100.00
32298;BME280;18782;48.984;8.548;2023-12-07T02:55:22;100370.59;;;0.95;100.00
32298;BME280;18782;48.984;8.548;2023-12-07T02:57:50;100377.66;;;0.87;100.00
32298;BME280;18782;48.984;8.548;2023-12-07T03:00:18;100374.78;;;0.83;100.00
32298;BME280;18782;48.984;8.548;2023-12-07T03:02:49;100371.84;;;0.76;100.00
32298;BME280;18782;48.984;8.548;2023-12-07T03:05:17;100373.25;;;0.73;100.00
32298;BME280;18782;48.984;8.548;2023-12-07T03:11:52;100371.31;;;0.57;100.00
32298;BME280;18782;48.984;8.548;2023-12-07T03:14:20;100369.34;;;0.53;100.00
32298;BME280;18782;48.984;8.548;2023-12-07T03:16:47;100377.50;;;0.49;100.00
32298;BME280;18782;48.984;8.548;2023-12-07T03:19:16;100369.47;;;0.43;100.00
32298;BME280;18782;48.984;8.548;2023-12-07T03:21:44;100375.09;;;0.39;100.00
32298;BME280;18782;48.984;8.548;2023-12-07T03:24:12;100371.56;;;0.37;100.00
32298;BME280;18782;48.984;8.548;2023-12-07T03:26:39;100370.91;;;0.28;100.00
32298;BME280;18782;48.984;8.548;2023-12-07T03:29:07;100384.88;;;0.22;100.00
32298;BME280;18782;48.984;8.548;2023-12-07T03:31:34;100381.25;;;0.19;100.00
32298;BME280;18782;48.984;8.548;2023-12-07T03:34:02;100377.50;;;0.14;100.00
32298;BME280;18782;48.984;8.548;2023-12-07T03:36:33;100382.75;;;0.05;100.00
32298;BME280;18782;48.984;8.548;2023-12-07T03:39:01;100379.78;;;-0.01;100.00
32298;BME280;18782;48.984;8.548;2023-12-07T03:41:29;100386.16;;;-0.06;100.00
32298;BME280;18782;48.984;8.548;2023-12-07T03:43:57;100386.50;;;-0.13;100.00
32298;BME280;18782;48.984;8.548;2023-12-07T03:46:25;100387.03;;;-0.17;100.00
32298;BME280;18782;48.984;8.548;2023-12-07T03:48:51;100380.13;;;-0.20;100.00
32298;BME280;18782;48.984;8.548;2023-12-07T03:51:19;100386.69;;;-0.22;100.00
32298;BME280;18782;48.984;8.548;2023-12-07T03:53:48;100390.66;;;-0.25;100.00
32298;BME280;18782;48.984;8.548;2023-12-07T03:56:24;100395.47;;;-0.29;100.00
32298;BME280;18782;48.984;8.548;2023-12-07T03:58:52;100401.00;;;-0.22;100.00
32298;BME280;18782;48.984;8.548;2023-12-07T04:01:21;100396.59;;;-0.25;100.00
32298;BME280;18782;48.984;8.548;2023-12-07T04:03:51;100403.00;;;-0.18;100.00
32298;BME280;18782;48.984;8.548;2023-12-07T04:06:18;100392.19;;;-0.16;100.00
32298;BME280;18782;48.984;8.548;2023-12-07T04:08:48;100392.88;;;-0.18;100.00
32298;BME280;18782;48.984;8.548;2023-12-07T04:11:16;100394.28;;;-0.22;100.00
32298;BME280;18782;48.984;8.548;2023-12-07T04:13:44;100393.19;;;-0.25;100.00
32298;BME280;18782;48.984;8.548;2023-12-07T04:16:12;100392.94;;;-0.29;100.00
32298;BME280;18782;48.984;8.548;2023-12-07T04:18:40;100388.66;;;-0.30;100.00
32298;BME280;18782;48.984;8.548;2023-12-07T04:21:07;100396.78;;;-0.34;100.00
32298;BME280;18782;48.984;8.548;2023-12-07T04:23:36;100394.78;;;-0.38;100.00
32298;BME280;18782;48.984;8.548;2023-12-07T04:26:05;100393.56;;;-0.43;100.00
32298;BME280;18782;48.984;8.548;2023-12-07T04:28:33;100397.75;;;-0.43;100.00
32298;BME280;18782;48.984;8.548;2023-12-07T04:31:01;100397.63;;;-0.45;100.00
32298;BME280;18782;48.984;8.548;2023-12-07T04:33:28;100398.28;;;-0.47;100.00
32298;BME280;18782;48.984;8.548;2023-12-07T04:35:56;100402.44;;;-0.48;100.00
32298;BME280;18782;48.984;8.548;2023-12-07T04:38:24;100403.22;;;-0.49;100.00
32298;BME280;18782;48.984;8.548;2023-12-07T04:40:51;100400.13;;;-0.57;100.00
32298;BME280;18782;48.984;8.548;2023-12-07T04:43:21;100404.19;;;-0.59;100.00
32298;BME280;18782;48.984;8.548;2023-12-07T04:45:48;100406.34;;;-0.63;100.00
32298;BME280;18782;48.984;8.548;2023-12-07T04:48:16;100399.53;;;-0.64;100.00
32298;BME280;18782;48.984;8.548;2023-12-07T04:50:44;100409.44;;;-0.67;100.00
32298;BME280;18782;48.984;8.548;2023-12-07T04:53:11;100406.66;;;-0.70;100.00
32298;BME280;18782;48.984;8.548;2023-12-07T04:55:39;100410.06;;;-0.70;100.00
32298;BME280;18782;48.984;8.548;2023-12-07T04:58:09;100409.09;;;-0.72;100.00
32298;BME280;18782;48.984;8.548;2023-12-07T05:00:38;100412.03;;;-0.77;100.00
32298;BME280;18782;48.984;8.548;2023-12-07T05:03:06;100411.00;;;-0.80;100.00
32298;BME280;18782;48.984;8.548;2023-12-07T05:05:34;100411.78;;;-0.81;100.00
32298;BME280;18782;48.984;8.548;2023-12-07T05:08:03;100411.78;;;-0.81;100.00
32298;BME280;18782;48.984;8.548;2023-12-07T05:10:30;100411.53;;;-0.84;100.00
32298;BME280;18782;48.984;8.548;2023-12-07T05:12:58;100411.53;;;-0.84;100.00
32298;BME280;18782;48.984;8.548;2023-12-07T05:15:26;100409.78;;;-0.85;100.00
32298;BME280;18782;48.984;8.548;2023-12-07T05:17:55;100408.78;;;-0.87;100.00
32298;BME280;18782;48.984;8.548;2023-12-07T05:20:23;100403.63;;;-0.88;100.00
32298;BME280;18782;48.984;8.548;2023-12-07T05:22:52;100405.38;;;-0.87;100.00
32298;BME280;18782;48.984;8.548;2023-12-07T05:25:20;100396.91;;;-0.88;100.00
32298;BME280;18782;48.984;8.548;2023-12-07T05:27:48;100404.50;;;-0.88;100.00
32298;BME280;18782;48.984;8.548;2023-12-07T05:30:16;100399.44;;;-0.88;100.00
32298;BME280;18782;48.984;8.548;2023-12-07T05:32:43;100402.50;;;-0.92;100.00
32298;BME280;18782;48.984;8.548;2023-12-07T05:35:12;100396.69;;;-0.91;100.00
32298;BME280;18782;48.984;8.548;2023-12-07T05:37:40;100406.66;;;-0.92;100.00
32298;BME280;18782;48.984;8.548;2023-12-07T05:40:09;100409.31;;;-0.91;100.00
32298;BME280;18782;48.984;8.548;2023-12-07T05:42:38;100406.56;;;-0.94;100.00
32298;BME280;18782;48.984;8.548;2023-12-07T05:45:06;100408.84;;;-0.97;100.00
32298;BME280;18782;48.984;8.548;2023-12-07T05:47:36;100404.66;;;-0.96;100.00
32298;BME280;18782;48.984;8.548;2023-12-07T05:50:05;100400.50;;;-0.96;100.00
32298;BME280;18782;48.984;8.548;2023-12-07T05:52:34;100397.59;;;-1.00;100.00
32298;BME280;18782;48.984;8.548;2023-12-07T05:55:01;100395.97;;;-1.00;100.00
32298;BME280;18782;48.984;8.548;2023-12-07T05:57:29;100407.59;;;-1.02;100.00
32298;BME280;18782;48.984;8.548;2023-12-07T05:59:57;100409.38;;;-1.01;100.00
32298;BME280;18782;48.984;8.548;2023-12-07T06:02:25;100412.91;;;-0.99;100.00
32298;BME280;18782;48.984;8.548;2023-12-07T06:04:53;100410.59;;;-0.96;100.00
32298;BME280;18782;48.984;8.548;2023-12-07T06:07:21;100415.66;;;-0.96;100.00
32298;BME280;18782;48.984;8.548;2023-12-07T06:09:50;100414.78;;;-0.96;100.00
32298;BME280;18782;48.984;8.548;2023-12-07T06:12:18;100418.06;;;-0.97;100.00
32298;BME280;18782;48.984;8.548;2023-12-07T06:14:48;100412.50;;;-0.93;100.00
32298;BME280;18782;48.984;8.548;2023-12-07T06:17:16;100408.25;;;-0.83;100.00
32298;BME280;18782;48.984;8.548;2023-12-07T06:19:44;100411.06;;;-0.90;100.00
32298;BME280;18782;48.984;8.548;2023-12-07T06:22:12;100410.59;;;-0.96;100.00
32298;BME280;18782;48.984;8.548;2023-12-07T06:24:40;100410.91;;;-1.03;100.00
32298;BME280;18782;48.984;8.548;2023-12-07T06:27:09;100409.66;;;-1.08;100.00
32298;BME280;18782;48.984;8.548;2023-12-07T06:29:37;100411.81;;;-1.13;100.00
32298;BME280;18782;48.984;8.548;2023-12-07T06:32:06;100406.94;;;-1.21;100.00
32298;BME280;18782;48.984;8.548;2023-12-07T06:34:34;100409.97;;;-1.25;100.00
32298;BME280;18782;48.984;8.548;2023-12-07T06:37:06;100416.03;;;-1.23;100.00
32298;BME280;18782;48.984;8.548;2023-12-07T06:39:36;100421.31;;;-1.20;100.00
32298;BME280;18782;48.984;8.548;2023-12-07T06:42:04;100425.84;;;-1.16;100.00
32298;BME280;18782;48.984;8.548;2023-12-07T06:44:33;100422.56;;;-1.15;100.00
32298;BME280;18782;48.984;8.548;2023-12-07T06:47:01;100431.69;;;-1.17;100.00
32298;BME280;18782;48.984;8.548;2023-12-07T06:49:30;100430.91;;;-1.16;100.00
32298;BME280;18782;48.984;8.548;2023-12-07T06:52:15;100433.38;;;-1.06;100.00
32298;BME280;18782;48.984;8.548;2023-12-07T06:54:43;100427.31;;;-0.98;100.00
32298;BME280;18782;48.984;8.548;2023-12-07T06:57:11;100429.72;;;-0.77;100.00
32298;BME280;18782;48.984;8.548;2023-12-07T06:59:40;100425.53;;;-0.55;100.00
32298;BME280;18782;48.984;8.548;2023-12-07T07:02:08;100420.88;;;-0.61;100.00
32298;BME280;18782;48.984;8.548;2023-12-07T07:04:35;100421.78;;;-0.60;100.00
32298;BME280;18782;48.984;8.548;2023-12-07T07:07:03;100416.03;;;-0.58;100.00
32298;BME280;18782;48.984;8.548;2023-12-07T07:09:31;100423.53;;;-0.59;100.00
32298;BME280;18782;48.984;8.548;2023-12-07T07:11:59;100410.09;;;-0.58;100.00
32298;BME280;18782;48.984;8.548;2023-12-07T07:14:26;100419.13;;;-0.62;100.00
32298;BME280;18782;48.984;8.548;2023-12-07T07:16:56;100414.72;;;-0.64;100.00
32298;BME280;18782;48.984;8.548;2023-12-07T07:19:23;100417.41;;;-0.51;100.00
32298;BME280;18782;48.984;8.548;2023-12-07T07:21:51;100416.66;;;-0.50;100.00
32298;BME280;18782;48.984;8.548;2023-12-07T07:24:19;100420.97;;;-0.04;100.00
32298;BME280;18782;48.984;8.548;2023-12-07T07:26:47;100421.84;;;-0.03;100.00
32298;BME280;18782;48.984;8.548;2023-12-07T07:29:14;100419.97;;;0.06;100.00
32298;BME280;18782;48.984;8.548;2023-12-07T07:31:42;100434.28;;;0.06;100.00
32298;BME280;18782;48.984;8.548;2023-12-07T07:34:11;100443.09;;;0.11;100.00
32298;BME280;18782;48.984;8.548;2023-12-07T07:36:39;100444.44;;;0.17;100.00
32298;BME280;18782;48.984;8.548;2023-12-07T07:39:06;100445.75;;;0.12;100.00
32298;BME280;18782;48.984;8.548;2023-12-07T07:41:35;100444.19;;;0.14;100.00
32298;BME280;18782;48.984;8.548;2023-12-07T07:44:02;100444.28;;;0.04;100.00
32298;BME280;18782;48.984;8.548;2023-12-07T07:46:30;100454.28;;;-0.09;100.00
32298;BME280;18782;48.984;8.548;2023-12-07T07:48:58;100452.28;;;-0.13;100.00
32298;BME280;18782;48.984;8.548;2023-12-07T07:51:27;100454.72;;;-0.15;100.00
32298;BME280;18782;48.984;8.548;2023-12-07T07:53:55;100466.78;;;-0.22;100.00
32298;BME280;18782;48.984;8.548;2023-12-07T07:56:25;100460.28;;;-0.31;100.00
32298;BME280;18782;48.984;8.548;2023-12-07T07:58:52;100464.19;;;-0.34;100.00
32298;BME280;18782;48.984;8.548;2023-12-07T08:01:20;100464.81;;;0.77;100.00
32298;BME280;18782;48.984;8.548;2023-12-07T08:03:48;100459.84;;;0.67;100.00
32298;BME280;18782;48.984;8.548;2023-12-07T08:06:16;100469.31;;;0.35;100.00
32298;BME280;18782;48.984;8.548;2023-12-07T08:08:45;100473.28;;;0.31;100.00
32298;BME280;18782;48.984;8.548;2023-12-07T08:11:14;100463.16;;;0.31;100.00
32298;BME280;18782;48.984;8.548;2023-12-07T08:13:41;100446.63;;;0.24;100.00
32298;BME280;18782;48.984;8.548;2023-12-07T08:16:09;100448.19;;;0.22;100.00
32298;BME280;18782;48.984;8.548;2023-12-07T08:18:37;100444.00;;;0.23;100.00
32298;BME280;18782;48.984;8.548;2023-12-07T08:21:05;100440.16;;;0.16;100.00
32298;BME280;18782;48.984;8.548;2023-12-07T08:23:34;100437.38;;;0.13;100.00
32298;BME280;18782;48.984;8.548;2023-12-07T08:26:04;100434.19;;;0.16;100.00
32298;BME280;18782;48.984;8.548;2023-12-07T08:28:31;100428.91;;;0.24;100.00
32298;BME280;18782;48.984;8.548;2023-12-07T08:30:59;100423.09;;;0.37;100.00
32298;BME280;18782;48.984;8.548;2023-12-07T08:33:27;100418.22;;;0.52;100.00
32298;BME280;18782;48.984;8.548;2023-12-07T08:35:55;100418.56;;;0.68;100.00
32298;BME280;18782;48.984;8.548;2023-12-07T08:38:23;100425.69;;;0.86;100.00
32298;BME280;18782;48.984;8.548;2023-12-07T08:40:51;100430.50;;;1.06;100.00
32298;BME280;18782;48.984;8.548;2023-12-07T08:43:21;100427.16;;;1.30;100.00
32298;BME280;18782;48.984;8.548;2023-12-07T08:45:49;100417.38;;;1.48;100.00
32298;BME280;18782;48.984;8.548;2023-12-07T08:48:17;100407.72;;;1.56;100.00
32298;BME280;18782;48.984;8.548;2023-12-07T08:50:45;100401.50;;;1.64;100.00
32298;BME280;18782;48.984;8.548;2023-12-07T08:53:12;100402.94;;;1.86;100.00
32298;BME280;18782;48.984;8.548;2023-12-07T08:55:40;100401.31;;;1.99;100.00
32298;BME280;18782;48.984;8.548;2023-12-07T08:58:08;100407.09;;;2.10;100.00
32298;BME280;18782;48.984;8.548;2023-12-07T09:00:38;100394.41;;;2.10;100.00
32298;BME280;18782;48.984;8.548;2023-12-07T09:03:06;100399.28;;;2.33;100.00
32298;BME280;18782;48.984;8.548;2023-12-07T09:05:33;100402.81;;;2.49;100.00
32298;BME280;18782;48.984;8.548;2023-12-07T09:08:01;100408.78;;;2.63;100.00
32298;BME280;18782;48.984;8.548;2023-12-07T09:10:29;100405.25;;;2.74;100.00
32298;BME280;18782;48.984;8.548;2023-12-07T09:12:56;100416.97;;;2.85;99.26
32298;BME280;18782;48.984;8.548;2023-12-07T09:15:24;100411.47;;;2.92;98.20
32298;BME280;18782;48.984;8.548;2023-12-07T09:17:54;100400.59;;;3.79;100.00
32298;BME280;18782;48.984;8.548;2023-12-07T09:20:22;100400.84;;;4.28;100.00
32298;BME280;18782;48.984;8.548;2023-12-07T09:22:51;100404.97;;;4.86;100.00
32298;BME280;18782;48.984;8.548;2023-12-07T09:25:20;100389.34;;;5.28;96.25
32298;BME280;18782;48.984;8.548;2023-12-07T09:27:48;100399.94;;;5.35;93.18
32298;BME280;18782;48.984;8.548;2023-12-07T09:30:15;100400.56;;;5.64;90.09
32298;BME280;18782;48.984;8.548;2023-12-07T09:32:43;100396.69;;;5.88;87.63
32298;BME280;18782;48.984;8.548;2023-12-07T09:35:13;100397.25;;;5.83;87.42
32298;BME280;18782;48.984;8.548;2023-12-07T09:37:46;100396.56;;;5.85;88.04
32298;BME280;18782;48.984;8.548;2023-12-07T09:40:14;100397.19;;;5.97;86.57
32298;BME280;18782;48.984;8.548;2023-12-07T09:42:43;100398.53;;;6.25;84.32
32298;BME280;18782;48.984;8.548;2023-12-07T09:45:12;100395.06;;;6.59;84.05
32298;BME280;18782;48.984;8.548;2023-12-07T09:47:41;100384.97;;;6.62;81.45
32298;BME280;18782;48.984;8.548;2023-12-07T09:50:10;100386.03;;;6.85;82.58
32298;BME280;18782;48.984;8.548;2023-12-07T09:52:40;100384.47;;;7.06;80.81
32298;BME280;18782;48.984;8.548;2023-12-07T09:55:19;100371.94;;;6.75;80.81
32298;BME280;18782;48.984;8.548;2023-12-07T09:57:49;100367.91;;;6.62;80.06
32298;BME280;18782;48.984;8.548;2023-12-07T10:00:18;100362.09;;;6.65;82.74
32298;BME280;18782;48.984;8.548;2023-12-07T10:02:46;100361.28;;;6.66;83.54
32298;BME280;18782;48.984;8.548;2023-12-07T10:05:14;100353.66;;;6.85;83.71
32298;BME280;18782;48.984;8.548;2023-12-07T10:07:46;100355.44;;;7.44;88.08
32298;BME280;18782;48.984;8.548;2023-12-07T10:10:15;100360.38;;;7.80;80.77
32298;BME280;18782;48.984;8.548;2023-12-07T10:12:46;100346.28;;;7.70;79.50
32298;BME280;18782;48.984;8.548;2023-12-07T10:15:16;100350.06;;;7.78;79.59
32298;BME280;18782;48.984;8.548;2023-12-07T10:17:45;100337.94;;;7.95;79.59
32298;BME280;18782;48.984;8.548;2023-12-07T10:20:16;100336.53;;;8.24;78.27
32298;BME280;18782;48.984;8.548;2023-12-07T10:22:45;100336.31;;;8.39;77.36
32298;BME280;18782;48.984;8.548;2023-12-07T10:25:14;100350.59;;;8.55;76.95
32298;BME280;18782;48.984;8.548;2023-12-07T10:27:42;100345.88;;;8.66;75.63
32298;BME280;18782;48.984;8.548;2023-12-07T10:30:10;100355.50;;;8.71;73.17
32298;BME280;18782;48.984;8.548;2023-12-07T10:32:39;100342.47;;;8.87;73.09
32298;BME280;18782;48.984;8.548;2023-12-07T10:35:08;100342.81;;;9.21;72.18
32298;BME280;18782;48.984;8.548;2023-12-07T10:37:36;100332.84;;;9.54;70.05
32298;BME280;18782;48.984;8.548;2023-12-07T10:40:06;100331.81;;;9.98;68.46
32298;BME280;18782;48.984;8.548;2023-12-07T10:42:34;100325.50;;;10.15;67.03
32298;BME280;18782;48.984;8.548;2023-12-07T10:45:06;100317.47;;;10.32;67.40
32298;BME280;18782;48.984;8.548;2023-12-07T10:47:36;100311.81;;;10.70;65.19
32298;BME280;18782;48.984;8.548;2023-12-07T10:50:06;100302.84;;;10.59;63.76
32298;BME280;18782;48.984;8.548;2023-12-07T10:52:44;100290.28;;;10.98;60.88
32298;BME280;18782;48.984;8.548;2023-12-07T10:55:16;100295.72;;;11.09;60.56
32298;BME280;18782;48.984;8.548;2023-12-07T10:57:47;100276.72;;;11.06;59.15
32298;BME280;18782;48.984;8.548;2023-12-07T11:00:15;100269.97;;;11.41;59.05
32298;BME280;18782;48.984;8.548;2023-12-07T11:02:50;100277.06;;;11.49;57.92
32298;BME280;18782;48.984;8.548;2023-12-07T11:05:20;100280.22;;;11.72;56.17
32298;BME280;18782;48.984;8.548;2023-12-07T11:07:52;100264.63;;;12.01;56.25
32298;BME280;18782;48.984;8.548;2023-12-07T11:10:27;100257.16;;;12.13;52.87
32298;BME280;18782;48.984;8.548;2023-12-07T11:13:05;100254.16;;;12.33;52.14
32298;BME280;18782;48.984;8.548;2023-12-07T11:15:35;100248.59;;;12.53;51.12
32298;BME280;18782;48.984;8.548;2023-12-07T11:18:05;100236.91;;;11.94;48.19
32298;BME280;18782;48.984;8.548;2023-12-07T11:20:40;100226.75;;;12.38;49.42
32298;BME280;18782;48.984;8.548;2023-12-07T11:23:08;100216.59;;;12.47;46.17
32298;BME280;18782;48.984;8.548;2023-12-07T11:25:37;100210.19;;;12.28;46.08
32298;BME280;18782;48.984;8.548;2023-12-07T11:28:07;100214.53;;;12.31;44.70
32298;BME280;18782;48.984;8.548;2023-12-07T11:30:36;100204.25;;;11.94;45.29
32298;BME280;18782;48.984;8.548;2023-12-07T11:33:05;100196.84;;;12.08;44.85
32298;BME280;18782;48.984;8.548;2023-12-07T11:35:33;100192.97;;;12.28;43.65
32298;BME280;18782;48.984;8.548;2023-12-07T11:38:03;100195.97;;;11.71;41.63
32298;BME280;18782;48.984;8.548;2023-12-07T11:40:36;100193.66;;;12.21;43.15
32298;BME280;18782;48.984;8.548;2023-12-07T11:43:04;100187.91;;;12.75;42.63
32298;BME280;18782;48.984;8.548;2023-12-07T11:45:37;100185.41;;;13.25;42.62
32298;BME280;18782;48.984;8.548;2023-12-07T11:48:11;100181.53;;;13.52;42.63
32298;BME280;18782;48.984;8.548;2023-12-07T11:50:59;100169.00;;;13.23;41.45
32298;BME280;18782;48.984;8.548;2023-12-07T11:53:29;100158.16;;;12.96;43.24
32298;BME280;18782;48.984;8.548;2023-12-07T11:55:59;100157.97;;;12.85;43.98
32298;BME280;18782;48.984;8.548;2023-12-07T11:58:27;100164.84;;;12.85;43.45
32298;BME280;18782;48.984;8.548;2023-12-07T12:00:56;100150.41;;;12.96;42.55
32298;BME280;18782;48.984;8.548;2023-12-07T12:03:24;100164.00;;;12.86;41.19
32298;BME280;18782;48.984;8.548;2023-12-07T12:05:52;100147.94;;;13.02;41.74
32298;BME280;18782;48.984;8.548;2023-12-07T12:08:21;100140.06;;;12.96;40.31
32298;BME280;18782;48.984;8.548;2023-12-07T12:10:50;100137.41;;;13.41;40.65
32298;BME280;18782;48.984;8.548;2023-12-07T12:13:26;100137.88;;;12.70;40.42
32298;BME280;18782;48.984;8.548;2023-12-07T12:15:55;100133.28;;;13.01;39.86
32298;BME280;18782;48.984;8.548;2023-12-07T12:18:26;100124.41;;;12.87;38.25
32298;BME280;18782;48.984;8.548;2023-12-07T12:20:54;100121.03;;;11.65;39.15
32298;BME280;18782;48.984;8.548;2023-12-07T12:23:24;100116.50;;;11.19;40.35
32298;BME280;18782;48.984;8.548;2023-12-07T12:25:51;100112.22;;;11.19;40.16
32298;BME280;18782;48.984;8.548;2023-12-07T12:28:21;100115.13;;;10.65;40.94
32298;BME280;18782;48.984;8.548;2023-12-07T12:30:50;100111.06;;;11.07;41.53
32298;BME280;18782;48.984;8.548;2023-12-07T12:33:19;100092.97;;;10.39;42.06
32298;BME280;18782;48.984;8.548;2023-12-07T12:36:02;100105.41;;;10.87;41.89
32298;BME280;18782;48.984;8.548;2023-12-07T12:38:31;100104.78;;;10.97;41.26
32298;BME280;18782;48.984;8.548;2023-12-07T12:41:08;100098.19;;;11.07;41.58
32298;BME280;18782;48.984;8.548;2023-12-07T12:43:38;100098.63;;;11.27;42.19
32298;BME280;18782;48.984;8.548;2023-12-07T12:46:05;100089.81;;;11.53;41.71
32298;BME280;18782;48.984;8.548;2023-12-07T12:48:33;100088.78;;;11.46;43.93
32298;BME280;18782;48.984;8.548;2023-12-07T12:51:07;100087.06;;;11.83;45.62
32298;BME280;18782;48.984;8.548;2023-12-07T12:53:35;100075.69;;;12.16;45.40
32298;BME280;18782;48.984;8.548;2023-12-07T12:56:04;100074.59;;;12.03;45.27
32298;BME280;18782;48.984;8.548;2023-12-07T12:58:32;100066.78;;;12.00;45.44
32298;BME280;18782;48.984;8.548;2023-12-07T13:01:01;100077.81;;;11.93;46.88